Time,TemperatureF,DewpointF,PressureIn,WindDirection,WindDirectionDegrees,WindSpeedMPH,WindSpeedGustMPH,Humidity,HourlyPrecipIn,Conditions,Clouds,dailyrainin,SoftwareType,DateUTC
2013-03-01 00:04:00,47.3,42.7,30.03,ESE,112,0.0,0.0,84,0.00,,---,0.00,VWS V14.01,2013-03-01 08:04:00,
2013-03-01 00:09:00,47.3,43.0,30.03,ESE,112,0.0,0.0,85,0.00,,---,0.00,VWS V14.01,2013-03-01 08:09:00,
2013-03-01 00:14:00,47.1,42.8,30.03,ESE,112,0.0,0.0,85,0.00,,---,0.00,VWS V14.01,2013-03-01 08:14:00,
2013-03-01 00:19:00,47.3,43.0,30.03,ESE,112,0.0,0.0,85,0.00,,---,0.00,VWS V14.01,2013-03-01 08:19:00,
2013-03-01 00:24:00,47.3,43.0,30.03,ESE,112,0.0,0.0,85,0.00,,---,0.00,VWS V14.01,2013-03-01 08:24:00,
2013-03-01 00:29:00,47.1,42.8,30.03,ESE,112,0.0,0.0,85,0.00,,---,0.00,VWS V14.01,2013-03-01 08:29:00,
2013-03-01 00:34:00,47.1,42.8,30.03,ESE,112,0.0,0.0,85,0.00,,---,0.00,VWS V14.01,2013-03-01 08:34:00,
2013-03-01 00:39:00,46.9,42.7,30.03,ESE,112,0.0,0.0,85,0.00,,---,0.00,VWS V14.01,2013-03-01 08:39:00,
2013-03-01 00:44:00,46.8,42.5,30.03,ESE,112,0.0,0.0,85,0.00,,---,0.00,VWS V14.01,2013-03-01 08:44:00,
2013-03-01 00:49:00,46.6,42.3,30.03,ESE,112,0.0,0.0,85,0.00,,---,0.00,VWS V14.01,2013-03-01 08:49:00,
2013-03-01 00:54:00,46.4,42.1,30.03,ESE,112,0.0,0.0,85,0.00,,---,0.00,VWS V14.01,2013-03-01 08:54:00,
2013-03-01 00:59:00,46.4,42.1,30.03,ESE,112,0.0,0.0,85,0.00,,---,0.00,VWS V14.01,2013-03-01 08:59:00,
2013-03-01 01:04:00,46.2,42.3,30.03,ESE,112,0.0,0.0,86,0.00,,---,0.00,VWS V14.01,2013-03-01 09:04:00,
2013-03-01 01:09:00,46.2,42.3,30.03,ESE,112,0.0,0.0,86,0.00,,---,0.00,VWS V14.01,2013-03-01 09:09:00,
2013-03-01 01:14:00,46.0,42.1,30.03,ESE,112,0.0,0.0,86,0.00,,---,0.00,VWS V14.01,2013-03-01 09:14:00,
2013-03-01 01:19:00,46.0,42.1,30.03,ESE,112,0.0,0.0,86,0.00,,---,0.00,VWS V14.01,2013-03-01 09:19:00,
2013-03-01 01:24:00,45.9,41.9,30.03,ESE,112,0.0,0.0,86,0.00,,---,0.00,VWS V14.01,2013-03-01 09:24:00,
2013-03-01 01:29:00,45.9,41.9,30.03,ESE,112,0.0,0.0,86,0.00,,---,0.00,VWS V14.01,2013-03-01 09:29:00,
2013-03-01 01:34:00,45.9,41.9,30.03,ESE,112,0.0,0.0,86,0.00,,---,0.00,VWS V14.01,2013-03-01 09:34:00,
2013-03-01 01:39:00,45.9,42.2,30.03,ESE,112,0.0,0.0,87,0.00,,---,0.00,VWS V14.01,2013-03-01 09:39:00,
2013-03-01 01:44:00,45.9,42.2,30.03,ESE,112,0.0,0.0,87,0.00,,---,0.00,VWS V14.01,2013-03-01 09:44:00,
2013-03-01 01:49:00,46.0,42.4,30.03,ESE,112,0.0,0.0,87,0.00,,---,0.00,VWS V14.01,2013-03-01 09:49:00,
2013-03-01 01:54:00,46.0,42.4,30.03,ESE,112,0.0,0.0,87,0.00,,---,0.00,VWS V14.01,2013-03-01 09:54:00,
2013-03-01 01:59:00,45.9,42.2,30.03,ESE,112,0.0,0.0,87,0.00,,---,0.00,VWS V14.01,2013-03-01 09:59:00,
2013-03-01 02:04:00,45.7,42.0,30.03,East,90,0.0,0.0,87,0.00,,---,0.00,VWS V14.01,2013-03-01 10:04:00,
2013-03-01 02:09:00,45.7,42.0,30.03,ESE,112,0.0,0.0,87,0.00,,---,0.00,VWS V14.01,2013-03-01 10:09:00,
2013-03-01 02:14:00,45.7,42.0,30.03,ESE,112,0.0,0.0,87,0.00,,---,0.00,VWS V14.01,2013-03-01 10:14:00,
2013-03-01 02:19:00,45.7,42.0,30.03,ESE,112,0.0,0.0,87,0.00,,---,0.00,VWS V14.01,2013-03-01 10:19:00,
2013-03-01 02:24:00,45.5,41.9,30.03,ESE,112,0.0,0.0,87,0.00,,---,0.00,VWS V14.01,2013-03-01 10:24:00,
2013-03-01 02:29:00,45.7,42.0,30.03,ESE,112,0.0,0.0,87,0.00,,---,0.00,VWS V14.01,2013-03-01 10:29:00,
2013-03-01 02:34:00,45.9,42.5,30.03,ESE,112,0.0,0.0,88,0.00,,---,0.00,VWS V14.01,2013-03-01 10:34:00,
2013-03-01 02:39:00,45.9,42.5,30.03,ESE,112,0.0,0.0,88,0.00,,---,0.00,VWS V14.01,2013-03-01 10:39:00,
2013-03-01 02:44:00,45.5,42.2,30.03,ESE,112,0.0,0.0,88,0.00,,---,0.00,VWS V14.01,2013-03-01 10:44:00,
2013-03-01 02:49:00,45.3,41.7,30.03,ESE,112,0.0,0.0,87,0.00,,---,0.00,VWS V14.01,2013-03-01 10:49:00,
2013-03-01 02:54:00,45.3,41.7,30.03,ESE,112,0.0,0.0,87,0.00,,---,0.00,VWS V14.01,2013-03-01 10:54:00,
2013-03-01 02:59:00,45.3,41.7,30.03,ESE,112,0.0,0.9,87,0.00,,---,0.00,VWS V14.01,2013-03-01 10:59:00,
2013-03-01 03:04:00,45.1,41.5,30.03,ESE,112,0.0,0.0,87,0.00,,---,0.00,VWS V14.01,2013-03-01 11:04:00,
2013-03-01 03:09:00,45.0,41.3,30.03,ESE,112,0.0,0.0,87,0.00,,---,0.00,VWS V14.01,2013-03-01 11:09:00,
2013-03-01 03:14:00,44.8,41.2,30.03,ESE,112,0.0,0.0,87,0.00,,---,0.00,VWS V14.01,2013-03-01 11:14:00,
2013-03-01 03:20:00,44.6,41.0,30.03,ESE,112,0.0,0.0,87,0.00,,---,0.00,VWS V14.01,2013-03-01 11:20:00,
2013-03-01 03:26:00,44.2,40.9,30.03,ESE,112,0.0,0.0,88,0.00,,---,0.00,VWS V14.01,2013-03-01 11:26:00,
2013-03-01 03:32:00,44.2,40.9,30.03,ESE,112,0.0,0.0,88,0.00,,---,0.00,VWS V14.01,2013-03-01 11:32:00,
2013-03-01 03:37:00,44.2,41.2,30.03,ESE,112,0.0,0.0,89,0.00,,---,0.00,VWS V14.01,2013-03-01 11:37:00,
2013-03-01 03:42:00,44.2,41.2,30.03,ESE,112,0.0,0.0,89,0.00,,---,0.00,VWS V14.01,2013-03-01 11:42:00,
2013-03-01 03:48:00,44.2,41.2,30.03,ESE,112,0.0,0.0,89,0.00,,---,0.00,VWS V14.01,2013-03-01 11:48:00,
2013-03-01 03:53:00,44.2,41.2,30.03,ESE,112,0.0,0.0,89,0.00,,---,0.00,VWS V14.01,2013-03-01 11:53:00,
2013-03-01 03:59:00,44.1,41.0,30.03,ESE,112,0.0,0.0,89,0.00,,---,0.00,VWS V14.01,2013-03-01 11:59:00,
2013-03-01 04:04:00,44.1,41.3,30.03,ESE,112,0.0,0.0,90,0.00,,---,0.00,VWS V14.01,2013-03-01 12:04:00,
2013-03-01 04:09:00,44.1,41.3,30.03,ESE,112,0.0,0.0,90,0.00,,---,0.00,VWS V14.01,2013-03-01 12:09:00,
2013-03-01 04:14:00,43.9,41.1,30.00,ESE,112,0.0,0.0,90,0.00,,---,0.00,VWS V14.01,2013-03-01 12:14:00,
2013-03-01 04:19:00,43.7,41.0,30.00,ESE,112,0.0,0.0,90,0.00,,---,0.00,VWS V14.01,2013-03-01 12:19:00,
2013-03-01 04:24:00,43.7,41.0,30.00,ESE,112,0.0,0.0,90,0.00,,---,0.00,VWS V14.01,2013-03-01 12:24:00,
2013-03-01 04:29:00,43.7,41.0,30.00,ESE,112,0.0,0.0,90,0.00,,---,0.00,VWS V14.01,2013-03-01 12:29:00,
2013-03-01 04:34:00,43.9,41.1,30.00,ESE,112,0.0,0.0,90,0.00,,---,0.00,VWS V14.01,2013-03-01 12:34:00,
2013-03-01 04:39:00,43.9,41.1,30.00,ESE,112,0.0,0.0,90,0.00,,---,0.00,VWS V14.01,2013-03-01 12:39:00,
2013-03-01 04:44:00,43.9,41.1,30.00,ESE,112,0.0,0.0,90,0.00,,---,0.00,VWS V14.01,2013-03-01 12:44:00,
2013-03-01 04:49:00,43.9,41.4,30.00,ESE,112,0.0,0.0,91,0.00,,---,0.00,VWS V14.01,2013-03-01 12:49:00,
2013-03-01 04:54:00,44.1,41.9,30.00,ESE,112,0.0,0.0,92,0.00,,---,0.00,VWS V14.01,2013-03-01 12:54:00,
2013-03-01 04:59:00,44.1,41.9,30.00,ESE,112,0.0,0.0,92,0.00,,---,0.00,VWS V14.01,2013-03-01 12:59:00,
2013-03-01 05:04:00,43.9,41.7,30.00,ESE,112,0.0,0.0,92,0.00,,---,0.00,VWS V14.01,2013-03-01 13:04:00,
2013-03-01 05:10:00,43.7,41.5,30.00,ESE,112,0.0,0.0,92,0.00,,---,0.00,VWS V14.01,2013-03-01 13:10:00,
2013-03-01 05:15:00,43.7,41.2,30.00,ESE,112,0.0,0.0,91,0.00,,---,0.00,VWS V14.01,2013-03-01 13:15:00,
2013-03-01 05:20:00,43.5,41.1,30.00,ESE,112,0.0,0.0,91,0.00,,---,0.00,VWS V14.01,2013-03-01 13:20:00,
2013-03-01 05:25:00,43.5,41.1,30.00,ESE,112,0.0,0.0,91,0.00,,---,0.00,VWS V14.01,2013-03-01 13:25:00,
2013-03-01 05:30:00,43.2,40.7,30.00,ESE,112,0.0,0.0,91,0.00,,---,0.00,VWS V14.01,2013-03-01 13:30:00,
2013-03-01 05:35:00,43.0,40.5,30.00,ESE,112,0.0,0.0,91,0.00,,---,0.00,VWS V14.01,2013-03-01 13:35:00,
2013-03-01 05:40:00,42.8,40.1,30.00,ESE,112,0.0,0.0,90,0.00,,---,0.00,VWS V14.01,2013-03-01 13:40:00,
2013-03-01 05:45:00,42.6,40.2,30.00,ESE,112,0.0,0.0,91,0.00,,---,0.00,VWS V14.01,2013-03-01 13:45:00,
2013-03-01 05:50:00,42.4,40.0,30.00,ESE,112,0.0,0.0,91,0.00,,---,0.00,VWS V14.01,2013-03-01 13:50:00,
2013-03-01 05:55:00,42.4,39.7,30.00,West,270,1.3,1.3,90,0.00,,---,0.00,VWS V14.01,2013-03-01 13:55:00,
2013-03-01 06:00:00,42.6,40.2,30.00,West,270,0.0,0.0,91,0.00,,---,0.00,VWS V14.01,2013-03-01 14:00:00,
2013-03-01 06:05:00,42.4,40.0,30.00,West,270,0.0,0.0,91,0.00,,---,0.00,VWS V14.01,2013-03-01 14:05:00,
2013-03-01 06:10:00,42.4,40.0,30.00,West,270,0.0,0.0,91,0.00,,---,0.00,VWS V14.01,2013-03-01 14:10:00,
2013-03-01 06:15:00,42.4,40.0,30.00,West,270,0.0,0.0,91,0.00,,---,0.00,VWS V14.01,2013-03-01 14:15:00,
2013-03-01 06:20:00,42.4,40.0,30.00,West,270,0.0,0.0,91,0.00,,---,0.00,VWS V14.01,2013-03-01 14:20:00,
2013-03-01 06:25:00,41.7,39.0,30.00,West,270,0.0,0.0,90,0.00,,---,0.00,VWS V14.01,2013-03-01 14:25:00,
2013-03-01 06:30:00,41.5,38.5,30.00,West,270,0.0,0.0,89,0.00,,---,0.00,VWS V14.01,2013-03-01 14:30:00,
2013-03-01 06:35:00,41.4,38.4,30.00,West,270,0.0,0.0,89,0.00,,---,0.00,VWS V14.01,2013-03-01 14:35:00,
2013-03-01 06:40:00,41.2,38.2,30.00,West,270,0.0,0.0,89,0.00,,---,0.00,VWS V14.01,2013-03-01 14:40:00,
2013-03-01 06:45:00,41.2,38.5,30.00,West,270,0.0,0.0,90,0.00,,---,0.00,VWS V14.01,2013-03-01 14:45:00,
2013-03-01 06:50:00,41.2,38.5,30.00,West,270,0.0,0.0,90,0.00,,---,0.00,VWS V14.01,2013-03-01 14:50:00,
2013-03-01 06:56:00,41.2,38.5,30.00,West,270,0.0,0.0,90,0.00,,---,0.00,VWS V14.01,2013-03-01 14:56:00,
2013-03-01 07:01:00,41.4,38.9,30.00,West,270,0.0,0.0,91,0.00,,---,0.00,VWS V14.01,2013-03-01 15:01:00,
2013-03-01 07:07:00,41.4,38.9,30.00,West,270,0.0,0.0,91,0.00,,---,0.00,VWS V14.01,2013-03-01 15:07:00,
2013-03-01 07:12:00,41.5,39.1,29.97,West,270,0.0,0.0,91,0.00,,---,0.00,VWS V14.01,2013-03-01 15:12:00,
2013-03-01 07:17:00,41.7,39.3,29.97,West,270,0.0,0.0,91,0.00,,---,0.00,VWS V14.01,2013-03-01 15:17:00,
2013-03-01 07:23:00,41.9,39.5,29.97,West,270,0.0,0.0,91,0.00,,---,0.00,VWS V14.01,2013-03-01 15:23:00,
2013-03-01 07:28:00,42.3,40.1,29.97,West,270,0.0,0.0,92,0.00,,---,0.00,VWS V14.01,2013-03-01 15:28:00,
2013-03-01 07:33:00,42.4,40.3,29.97,West,270,0.0,0.0,92,0.00,,---,0.00,VWS V14.01,2013-03-01 15:33:00,
2013-03-01 07:38:00,42.8,40.6,29.97,West,270,0.0,0.0,92,0.00,,---,0.00,VWS V14.01,2013-03-01 15:38:00,
2013-03-01 07:43:00,43.3,41.5,29.97,West,270,0.0,0.0,93,0.00,,---,0.00,VWS V14.01,2013-03-01 15:43:00,
2013-03-01 07:48:00,44.1,42.2,29.97,West,270,0.0,0.0,93,0.00,,---,0.00,VWS V14.01,2013-03-01 15:48:00,
2013-03-01 07:53:00,44.6,42.7,29.97,West,270,0.0,0.0,93,0.00,,---,0.00,VWS V14.01,2013-03-01 15:53:00,
2013-03-01 07:58:00,45.1,43.2,29.97,West,270,0.0,0.0,93,0.00,,---,0.00,VWS V14.01,2013-03-01 15:58:00,
2013-03-01 08:03:00,45.9,44.0,29.97,West,270,0.0,0.0,93,0.00,,---,0.00,VWS V14.01,2013-03-01 16:03:00,
2013-03-01 08:08:00,46.2,44.3,29.97,East,90,0.0,0.0,93,0.00,,---,0.00,VWS V14.01,2013-03-01 16:08:00,
2013-03-01 08:13:00,46.8,44.8,29.97,East,90,0.0,0.0,93,0.00,,---,0.00,VWS V14.01,2013-03-01 16:13:00,
2013-03-01 08:19:00,47.5,45.3,29.97,ESE,112,0.9,0.9,92,0.00,,---,0.00,VWS V14.01,2013-03-01 16:19:00,
2013-03-01 08:24:00,48.0,45.8,29.97,ESE,112,0.0,0.0,92,0.00,,---,0.00,VWS V14.01,2013-03-01 16:24:00,
2013-03-01 08:29:00,48.7,46.5,29.97,ESE,112,0.0,0.0,92,0.00,,---,0.00,VWS V14.01,2013-03-01 16:29:00,
2013-03-01 08:34:00,49.3,46.8,29.97,ESE,112,0.0,0.0,91,0.00,,---,0.00,VWS V14.01,2013-03-01 16:34:00,
2013-03-01 08:40:00,50.2,47.7,29.97,West,270,1.3,1.3,91,0.00,,---,0.00,VWS V14.01,2013-03-01 16:40:00,
2013-03-01 08:45:00,50.5,48.0,30.00,WSW,248,0.9,1.1,91,0.00,,---,0.00,VWS V14.01,2013-03-01 16:45:00,
2013-03-01 08:50:00,51.3,48.4,30.00,West,270,0.0,0.0,90,0.00,,---,0.00,VWS V14.01,2013-03-01 16:50:00,
2013-03-01 08:55:00,51.8,49.0,30.00,WSW,248,1.6,1.6,90,0.00,,---,0.00,VWS V14.01,2013-03-01 16:55:00,
2013-03-01 09:00:00,52.3,49.2,29.97,ESE,112,0.0,0.0,89,0.00,,---,0.00,VWS V14.01,2013-03-01 17:00:00,
2013-03-01 09:05:00,53.1,49.6,29.97,WSW,248,0.0,0.0,88,0.00,,---,0.00,VWS V14.01,2013-03-01 17:05:00,
2013-03-01 09:10:00,53.6,49.8,29.97,WSW,248,0.0,1.3,87,0.00,,---,0.00,VWS V14.01,2013-03-01 17:10:00,
2013-03-01 09:15:00,54.3,50.2,30.00,WNW,292,0.0,0.0,86,0.00,,---,0.00,VWS V14.01,2013-03-01 17:15:00,
2013-03-01 09:20:00,55.4,51.0,30.00,East,90,0.0,0.0,85,0.00,,---,0.00,VWS V14.01,2013-03-01 17:20:00,
2013-03-01 09:25:00,56.1,51.7,30.00,ESE,112,1.6,1.6,85,0.00,,---,0.00,VWS V14.01,2013-03-01 17:25:00,
2013-03-01 09:31:00,57.0,52.2,30.00,East,90,0.0,0.0,84,0.00,,---,0.00,VWS V14.01,2013-03-01 17:31:00,
2013-03-01 09:36:00,57.7,52.3,30.00,East,90,0.0,0.0,82,0.00,,---,0.00,VWS V14.01,2013-03-01 17:36:00,
2013-03-01 09:41:00,58.5,52.7,30.00,East,90,0.0,0.0,81,0.00,,---,0.00,VWS V14.01,2013-03-01 17:41:00,
2013-03-01 09:46:00,59.2,53.0,30.00,East,90,0.0,1.6,80,0.00,,---,0.00,VWS V14.01,2013-03-01 17:46:00,
2013-03-01 09:51:00,60.1,53.6,30.00,ESE,112,0.0,0.0,79,0.00,,---,0.00,VWS V14.01,2013-03-01 17:51:00,
2013-03-01 09:57:00,60.6,53.0,30.00,WSW,248,0.0,1.6,76,0.00,,---,0.00,VWS V14.01,2013-03-01 17:57:00,
2013-03-01 10:02:00,61.2,53.2,30.00,WSW,248,2.2,2.2,75,0.00,,---,0.00,VWS V14.01,2013-03-01 18:02:00,
2013-03-01 10:07:00,61.9,53.1,30.00,SE,135,0.0,0.0,73,0.00,,---,0.00,VWS V14.01,2013-03-01 18:07:00,
2013-03-01 10:12:00,62.2,52.7,30.00,SE,135,0.0,1.3,71,0.00,,---,0.00,VWS V14.01,2013-03-01 18:12:00,
2013-03-01 10:18:00,62.8,52.9,30.00,West,270,0.0,2.9,70,0.00,,---,0.00,VWS V14.01,2013-03-01 18:18:00,
2013-03-01 10:23:00,63.1,52.8,30.00,WSW,248,2.9,3.8,69,0.00,,---,0.00,VWS V14.01,2013-03-01 18:23:00,
2013-03-01 10:28:00,63.1,52.4,30.00,WSW,248,2.0,2.7,68,0.00,,---,0.00,VWS V14.01,2013-03-01 18:28:00,
2013-03-01 10:33:00,63.5,52.4,30.00,SSE,158,0.0,0.0,67,0.00,,---,0.00,VWS V14.01,2013-03-01 18:33:00,
2013-03-01 10:38:00,64.2,53.5,30.00,WNW,292,2.0,2.7,68,0.00,,---,0.00,VWS V14.01,2013-03-01 18:38:00,
2013-03-01 10:43:00,64.8,53.2,29.97,ESE,112,0.0,0.0,66,0.00,,---,0.00,VWS V14.01,2013-03-01 18:43:00,
2013-03-01 10:48:00,65.3,53.2,29.97,WSW,248,2.7,2.7,65,0.00,,---,0.00,VWS V14.01,2013-03-01 18:48:00,
2013-03-01 10:53:00,65.8,53.8,29.97,West,270,0.0,1.1,65,0.00,,---,0.00,VWS V14.01,2013-03-01 18:53:00,
2013-03-01 10:58:00,66.4,53.4,29.97,WSW,248,2.0,2.0,63,0.00,,---,0.00,VWS V14.01,2013-03-01 18:58:00,
2013-03-01 11:03:00,66.7,52.9,29.97,East,90,0.0,1.3,61,0.00,,---,0.00,VWS V14.01,2013-03-01 19:03:00,
2013-03-01 11:08:00,67.5,53.6,29.97,ESE,112,0.0,1.1,61,0.00,,---,0.00,VWS V14.01,2013-03-01 19:08:00,
2013-03-01 11:14:00,67.8,53.4,29.97,West,270,2.5,2.9,60,0.00,,---,0.00,VWS V14.01,2013-03-01 19:14:00,
2013-03-01 11:19:00,67.8,51.1,29.97,SSW,202,0.0,0.0,55,0.00,,---,0.00,VWS V14.01,2013-03-01 19:19:00,
2013-03-01 11:24:00,68.7,52.4,29.97,East,90,0.0,0.9,56,0.00,,---,0.00,VWS V14.01,2013-03-01 19:24:00,
2013-03-01 11:29:00,69.1,52.7,29.97,ESE,112,0.0,0.0,56,0.00,,---,0.00,VWS V14.01,2013-03-01 19:29:00,
2013-03-01 11:35:00,69.4,52.6,29.97,ENE,68,0.0,0.0,55,0.00,,---,0.00,VWS V14.01,2013-03-01 19:35:00,
2013-03-01 11:40:00,70.0,52.1,29.97,ENE,68,0.0,0.0,53,0.00,,---,0.00,VWS V14.01,2013-03-01 19:40:00,
2013-03-01 11:45:00,70.2,52.2,29.97,West,270,1.1,2.0,53,0.00,,---,0.00,VWS V14.01,2013-03-01 19:45:00,
2013-03-01 11:51:00,70.9,52.9,29.97,SW,225,0.0,2.2,53,0.00,,---,0.00,VWS V14.01,2013-03-01 19:51:00,
2013-03-01 11:56:00,71.1,52.0,29.97,SW,225,2.7,2.7,51,0.00,,---,0.00,VWS V14.01,2013-03-01 19:56:00,
2013-03-01 12:01:00,71.2,51.7,29.97,SE,135,1.1,1.1,50,0.00,,---,0.00,VWS V14.01,2013-03-01 20:01:00,
2013-03-01 12:06:00,71.4,51.3,29.97,WNW,292,2.7,3.1,49,0.00,,---,0.00,VWS V14.01,2013-03-01 20:06:00,
2013-03-01 12:11:00,71.6,50.9,29.97,SSW,202,0.0,3.1,48,0.00,,---,0.00,VWS V14.01,2013-03-01 20:11:00,
2013-03-01 12:17:00,72.5,52.3,29.94,South,180,0.0,2.2,49,0.00,,---,0.00,VWS V14.01,2013-03-01 20:17:00,
2013-03-01 12:22:00,72.9,52.0,29.94,SW,225,2.0,2.0,48,0.00,,---,0.00,VWS V14.01,2013-03-01 20:22:00,
2013-03-01 12:27:00,73.0,51.1,29.94,West,270,1.1,1.3,46,0.00,,---,0.00,VWS V14.01,2013-03-01 20:27:00,
2013-03-01 12:32:00,73.2,51.2,29.94,East,90,0.0,0.0,46,0.00,,---,0.00,VWS V14.01,2013-03-01 20:32:00,
2013-03-01 12:37:00,73.6,51.5,29.94,West,270,2.5,2.7,46,0.00,,---,0.00,VWS V14.01,2013-03-01 20:37:00,
2013-03-01 12:43:00,73.8,51.1,29.94,East,90,0.0,0.0,45,0.00,,---,0.00,VWS V14.01,2013-03-01 20:43:00,
2013-03-01 12:49:00,74.1,50.8,29.94,SSW,202,0.0,0.0,44,0.00,,---,0.00,VWS V14.01,2013-03-01 20:49:00,
2013-03-01 12:54:00,74.5,50.5,29.94,SW,225,1.6,2.9,43,0.00,,---,0.00,VWS V14.01,2013-03-01 20:54:00,
2013-03-01 12:59:00,74.7,50.1,29.91,WSW,248,1.3,3.1,42,0.00,,---,0.00,VWS V14.01,2013-03-01 20:59:00,
2013-03-01 13:04:00,74.5,49.9,29.91,WSW,248,0.0,3.8,42,0.00,,---,0.00,VWS V14.01,2013-03-01 21:04:00,
2013-03-01 13:09:00,74.7,49.4,29.91,SSW,202,2.9,2.9,41,0.00,,---,0.00,VWS V14.01,2013-03-01 21:09:00,
2013-03-01 13:14:00,75.0,49.8,29.91,West,270,1.3,1.3,41,0.00,,---,0.00,VWS V14.01,2013-03-01 21:14:00,
2013-03-01 13:20:00,74.7,48.1,29.91,West,270,0.0,0.0,39,0.00,,---,0.00,VWS V14.01,2013-03-01 21:20:00,
2013-03-01 13:26:00,75.2,49.2,29.91,West,270,1.6,1.6,40,0.00,,---,0.00,VWS V14.01,2013-03-01 21:26:00,
2013-03-01 13:31:00,75.0,48.4,29.91,East,90,0.0,0.0,39,0.00,,---,0.00,VWS V14.01,2013-03-01 21:31:00,
2013-03-01 13:36:00,75.2,48.6,29.91,WSW,248,0.0,0.0,39,0.00,,---,0.00,VWS V14.01,2013-03-01 21:36:00,
2013-03-01 13:42:00,75.6,48.9,29.91,West,270,0.0,0.0,39,0.00,,---,0.00,VWS V14.01,2013-03-01 21:42:00,
2013-03-01 13:47:00,75.9,49.2,29.91,West,270,0.0,0.9,39,0.00,,---,0.00,VWS V14.01,2013-03-01 21:47:00,
2013-03-01 13:52:00,75.9,48.5,29.91,SE,135,0.0,0.0,38,0.00,,---,0.00,VWS V14.01,2013-03-01 21:52:00,
2013-03-01 13:57:00,76.3,49.5,29.91,North,0,0.0,0.0,39,0.00,,---,0.00,VWS V14.01,2013-03-01 21:57:00,
2013-03-01 14:02:00,76.5,49.0,29.91,ENE,68,0.0,0.0,38,0.00,,---,0.00,VWS V14.01,2013-03-01 22:02:00,
2013-03-01 14:07:00,76.3,47.4,29.91,North,0,0.0,0.0,36,0.00,,---,0.00,VWS V14.01,2013-03-01 22:07:00,
2013-03-01 14:12:00,76.5,48.3,29.88,SW,225,0.0,0.0,37,0.00,,---,0.00,VWS V14.01,2013-03-01 22:12:00,
2013-03-01 14:17:00,76.5,47.5,29.88,WNW,292,0.0,0.0,36,0.00,,---,0.00,VWS V14.01,2013-03-01 22:17:00,
2013-03-01 14:23:00,76.6,47.7,29.88,WSW,248,0.0,0.0,36,0.00,,---,0.00,VWS V14.01,2013-03-01 22:23:00,
2013-03-01 14:29:00,77.0,48.0,29.88,WSW,248,0.0,0.0,36,0.00,,---,0.00,VWS V14.01,2013-03-01 22:29:00,
2013-03-01 14:35:00,77.0,47.3,29.88,WNW,292,0.0,0.0,35,0.00,,---,0.00,VWS V14.01,2013-03-01 22:35:00,
2013-03-01 14:40:00,77.0,47.3,29.88,SW,225,0.0,2.5,35,0.00,,---,0.00,VWS V14.01,2013-03-01 22:40:00,
2013-03-01 14:46:00,77.0,48.0,29.88,WSW,248,0.0,3.1,36,0.00,,---,0.00,VWS V14.01,2013-03-01 22:46:00,
2013-03-01 14:51:00,76.8,49.3,29.88,NNE,22,0.9,1.3,38,0.00,,---,0.00,VWS V14.01,2013-03-01 22:51:00,
2013-03-01 14:56:00,76.1,49.4,29.88,SW,225,4.9,4.9,39,0.00,,---,0.00,VWS V14.01,2013-03-01 22:56:00,
2013-03-01 15:02:00,75.9,49.9,29.88,SE,135,0.9,2.9,40,0.00,,---,0.00,VWS V14.01,2013-03-01 23:02:00,
2013-03-01 15:07:00,75.7,50.4,29.88,West,270,1.6,2.7,41,0.00,,---,0.00,VWS V14.01,2013-03-01 23:07:00,
2013-03-01 15:12:00,75.7,50.4,29.88,West,270,4.0,4.0,41,0.00,,---,0.00,VWS V14.01,2013-03-01 23:12:00,
2013-03-01 15:18:00,75.6,49.6,29.88,NE,45,4.0,4.9,40,0.00,,---,0.00,VWS V14.01,2013-03-01 23:18:00,
2013-03-01 15:23:00,75.0,49.1,29.88,WSW,248,2.5,3.8,40,0.00,,---,0.00,VWS V14.01,2013-03-01 23:23:00,
2013-03-01 15:28:00,75.2,49.9,29.88,WNW,292,1.1,2.5,41,0.00,,---,0.00,VWS V14.01,2013-03-01 23:28:00,
2013-03-01 15:33:00,74.7,48.8,29.88,WNW,292,3.1,4.7,40,0.00,,---,0.00,VWS V14.01,2013-03-01 23:33:00,
2013-03-01 15:38:00,74.5,48.6,29.88,ENE,68,4.3,4.3,40,0.00,,---,0.00,VWS V14.01,2013-03-01 23:38:00,
2013-03-01 15:43:00,74.1,48.3,29.88,ESE,112,3.1,3.6,40,0.00,,---,0.00,VWS V14.01,2013-03-01 23:43:00,
2013-03-01 15:48:00,73.9,48.1,29.88,SE,135,1.3,1.3,40,0.00,,---,0.00,VWS V14.01,2013-03-01 23:48:00,
2013-03-01 15:54:00,73.6,47.8,29.88,WSW,248,3.8,3.8,40,0.00,,---,0.00,VWS V14.01,2013-03-01 23:54:00,
2013-03-01 15:59:00,73.4,47.0,29.88,WSW,248,2.0,2.0,39,0.00,,---,0.00,VWS V14.01,2013-03-01 23:59:00,
2013-03-01 16:05:00,73.0,47.3,29.88,ENE,68,1.3,3.6,40,0.00,,---,0.00,VWS V14.01,2013-03-02 00:05:00,
2013-03-01 16:11:00,72.7,47.0,29.88,West,270,3.8,4.3,40,0.00,,---,0.00,VWS V14.01,2013-03-02 00:11:00,
2013-03-01 16:16:00,72.3,46.0,29.85,WSW,248,5.4,5.4,39,0.00,,---,0.00,VWS V14.01,2013-03-02 00:16:00,
2013-03-01 16:22:00,72.1,46.5,29.85,WSW,248,1.6,1.6,40,0.00,,---,0.00,VWS V14.01,2013-03-02 00:22:00,
2013-03-01 16:27:00,72.0,46.3,29.85,West,270,3.4,3.4,40,0.00,,---,0.00,VWS V14.01,2013-03-02 00:27:00,
2013-03-01 16:32:00,71.6,46.0,29.85,WSW,248,3.8,3.8,40,0.00,,---,0.00,VWS V14.01,2013-03-02 00:32:00,
2013-03-01 16:37:00,71.4,46.5,29.85,North,0,0.0,3.6,41,0.00,,---,0.00,VWS V14.01,2013-03-02 00:37:00,
2013-03-01 16:42:00,71.2,46.4,29.85,West,270,3.1,3.1,41,0.00,,---,0.00,VWS V14.01,2013-03-02 00:42:00,
2013-03-01 16:47:00,71.1,46.8,29.85,WSW,248,2.2,2.2,42,0.00,,---,0.00,VWS V14.01,2013-03-02 00:47:00,
2013-03-01 16:52:00,70.7,46.5,29.85,WSW,248,3.4,3.4,42,0.00,,---,0.00,VWS V14.01,2013-03-02 00:52:00,
2013-03-01 16:57:00,70.5,46.3,29.85,WSW,248,0.9,0.9,42,0.00,,---,0.00,VWS V14.01,2013-03-02 00:57:00,
2013-03-01 17:02:00,70.5,46.3,29.85,WSW,248,2.9,2.9,42,0.00,,---,0.00,VWS V14.01,2013-03-02 01:02:00,
2013-03-01 17:07:00,70.3,46.2,29.85,WSW,248,2.7,2.7,42,0.00,,---,0.00,VWS V14.01,2013-03-02 01:07:00,
2013-03-01 17:12:00,70.0,45.9,29.85,WSW,248,1.1,2.0,42,0.00,,---,0.00,VWS V14.01,2013-03-02 01:12:00,
2013-03-01 17:17:00,69.6,45.5,29.85,WSW,248,3.1,3.6,42,0.00,,---,0.00,VWS V14.01,2013-03-02 01:17:00,
2013-03-01 17:22:00,69.6,45.5,29.85,SE,135,0.9,0.9,42,0.00,,---,0.00,VWS V14.01,2013-03-02 01:22:00,
2013-03-01 17:28:00,69.1,45.0,29.88,SE,135,0.0,0.9,42,0.00,,---,0.00,VWS V14.01,2013-03-02 01:28:00,
2013-03-01 17:33:00,68.7,44.7,29.88,SE,135,0.0,1.3,42,0.00,,---,0.00,VWS V14.01,2013-03-02 01:33:00,
2013-03-01 17:38:00,68.5,44.6,29.88,SE,135,0.0,0.0,42,0.00,,---,0.00,VWS V14.01,2013-03-02 01:38:00,
2013-03-01 17:43:00,68.2,44.9,29.85,ESE,112,0.0,0.0,43,0.00,,---,0.00,VWS V14.01,2013-03-02 01:43:00,
2013-03-01 17:48:00,67.8,44.5,29.85,ESE,112,0.0,0.0,43,0.00,,---,0.00,VWS V14.01,2013-03-02 01:48:00,
2013-03-01 17:53:00,67.6,44.4,29.85,ESE,112,1.1,1.6,43,0.00,,---,0.00,VWS V14.01,2013-03-02 01:53:00,
2013-03-01 17:58:00,67.3,44.7,29.85,ESE,112,1.6,2.0,44,0.00,,---,0.00,VWS V14.01,2013-03-02 01:58:00,
2013-03-01 18:03:00,66.7,44.8,29.85,SE,135,0.0,0.9,45,0.00,,---,0.00,VWS V14.01,2013-03-02 02:03:00,
2013-03-01 18:08:00,66.4,45.0,29.85,SE,135,0.0,0.0,46,0.00,,---,0.00,VWS V14.01,2013-03-02 02:08:00,
2013-03-01 18:13:00,66.0,45.2,29.85,SE,135,0.0,0.0,47,0.00,,---,0.00,VWS V14.01,2013-03-02 02:13:00,
2013-03-01 18:18:00,65.7,44.9,29.85,ESE,112,0.9,0.9,47,0.00,,---,0.00,VWS V14.01,2013-03-02 02:18:00,
2013-03-01 18:23:00,65.3,44.6,29.85,WNW,292,0.0,2.2,47,0.00,,---,0.00,VWS V14.01,2013-03-02 02:23:00,
2013-03-01 18:28:00,64.9,44.8,29.88,WNW,292,0.0,0.0,48,0.00,,---,0.00,VWS V14.01,2013-03-02 02:28:00,
2013-03-01 18:33:00,64.6,45.0,29.88,ENE,68,0.0,0.0,49,0.00,,---,0.00,VWS V14.01,2013-03-02 02:33:00,
2013-03-01 18:38:00,64.2,45.2,29.88,South,180,0.9,0.9,50,0.00,,---,0.00,VWS V14.01,2013-03-02 02:38:00,
2013-03-01 18:43:00,63.7,45.2,29.88,North,0,0.0,0.0,51,0.00,,---,0.00,VWS V14.01,2013-03-02 02:43:00,
2013-03-01 18:48:00,63.1,44.7,29.88,WNW,292,0.0,2.9,51,0.00,,---,0.00,VWS V14.01,2013-03-02 02:48:00,
2013-03-01 18:53:00,62.6,44.2,29.88,West,270,0.0,0.0,51,0.00,,---,0.00,VWS V14.01,2013-03-02 02:53:00,
2013-03-01 18:58:00,62.1,44.8,29.88,WSW,248,0.0,0.0,53,0.00,,---,0.00,VWS V14.01,2013-03-02 02:58:00,
2013-03-01 19:03:00,61.7,44.4,29.88,SE,135,0.0,0.0,53,0.00,,---,0.00,VWS V14.01,2013-03-02 03:03:00,
2013-03-01 19:08:00,61.2,44.9,29.88,SE,135,0.0,0.0,55,0.00,,---,0.00,VWS V14.01,2013-03-02 03:08:00,
2013-03-01 19:13:00,60.6,44.4,29.88,WSW,248,2.5,2.5,55,0.00,,---,0.00,VWS V14.01,2013-03-02 03:13:00,
2013-03-01 19:18:00,60.3,44.0,29.88,WSW,248,1.3,2.9,55,0.00,,---,0.00,VWS V14.01,2013-03-02 03:18:00,
2013-03-01 19:23:00,59.9,44.2,29.88,NNW,338,0.0,0.0,56,0.00,,---,0.00,VWS V14.01,2013-03-02 03:23:00,
2013-03-01 19:28:00,59.5,44.3,29.88,North,0,0.0,0.0,57,0.00,,---,0.00,VWS V14.01,2013-03-02 03:28:00,
2013-03-01 19:33:00,59.2,44.0,29.88,East,90,0.0,0.0,57,0.00,,---,0.00,VWS V14.01,2013-03-02 03:33:00,
2013-03-01 19:38:00,58.8,43.6,29.88,West,270,0.0,2.7,57,0.00,,---,0.00,VWS V14.01,2013-03-02 03:38:00,
2013-03-01 19:43:00,58.5,43.8,29.88,SE,135,0.0,1.3,58,0.00,,---,0.00,VWS V14.01,2013-03-02 03:43:00,
2013-03-01 19:48:00,58.1,43.9,29.88,WSW,248,2.0,2.9,59,0.00,,---,0.00,VWS V14.01,2013-03-02 03:48:00,
2013-03-01 19:53:00,57.9,44.1,29.88,West,270,0.0,0.0,60,0.00,,---,0.00,VWS V14.01,2013-03-02 03:53:00,
2013-03-01 19:58:00,57.6,43.8,29.88,ESE,112,0.0,0.0,60,0.00,,---,0.00,VWS V14.01,2013-03-02 03:58:00,
2013-03-01 20:03:00,57.2,43.9,29.88,ESE,112,0.0,0.0,61,0.00,,---,0.00,VWS V14.01,2013-03-02 04:03:00,
2013-03-01 20:08:00,57.0,44.1,29.88,ESE,112,0.0,0.0,62,0.00,,---,0.00,VWS V14.01,2013-03-02 04:08:00,
2013-03-01 20:13:00,56.7,44.2,29.88,SSE,158,0.0,0.0,63,0.00,,---,0.00,VWS V14.01,2013-03-02 04:13:00,
2013-03-01 20:18:00,56.5,44.0,29.88,SE,135,0.0,0.0,63,0.00,,---,0.00,VWS V14.01,2013-03-02 04:18:00,
2013-03-01 20:23:00,56.3,43.9,29.88,ESE,112,0.0,1.3,63,0.00,,---,0.00,VWS V14.01,2013-03-02 04:23:00,
2013-03-01 20:28:00,56.1,43.7,29.88,ESE,112,0.9,0.9,63,0.00,,---,0.00,VWS V14.01,2013-03-02 04:28:00,
2013-03-01 20:33:00,55.8,43.8,29.88,ESE,112,0.9,0.9,64,0.00,,---,0.00,VWS V14.01,2013-03-02 04:33:00,
2013-03-01 20:38:00,55.6,43.6,29.88,ESE,112,0.0,0.0,64,0.00,,---,0.00,VWS V14.01,2013-03-02 04:38:00,
2013-03-01 20:43:00,55.4,43.8,29.88,ESE,112,0.0,0.0,65,0.00,,---,0.00,VWS V14.01,2013-03-02 04:43:00,
2013-03-01 20:49:00,55.0,43.5,29.88,ESE,112,0.0,0.0,65,0.00,,---,0.00,VWS V14.01,2013-03-02 04:49:00,
2013-03-01 20:54:00,54.9,43.3,29.88,ESE,112,0.0,0.0,65,0.00,,---,0.00,VWS V14.01,2013-03-02 04:54:00,
2013-03-01 20:59:00,54.9,43.3,29.88,SE,135,0.0,0.0,65,0.00,,---,0.00,VWS V14.01,2013-03-02 04:59:00,
2013-03-01 21:00:00,54.7,43.2,29.88,SE,135,0.0,0.0,65,0.00,,---,0.00,VWS V14.01,2013-03-02 05:00:00,
2013-03-01 21:01:00,54.7,43.2,29.88,SE,135,0.0,0.0,65,0.00,,---,0.00,VWS V14.01,2013-03-02 05:01:00,
2013-03-01 21:02:00,54.7,43.2,29.88,SE,135,0.0,0.0,65,0.00,,---,0.00,VWS V14.01,2013-03-02 05:02:00,
2013-03-01 21:08:00,54.3,43.2,29.88,SE,135,0.0,0.0,66,0.00,,---,0.00,VWS V14.01,2013-03-02 05:08:00,
2013-03-01 21:13:00,54.0,42.9,29.88,SE,135,0.0,0.0,66,0.00,,---,0.00,VWS V14.01,2013-03-02 05:13:00,
2013-03-01 21:18:00,53.6,42.5,29.88,SE,135,0.0,0.0,66,0.00,,---,0.00,VWS V14.01,2013-03-02 05:18:00,
2013-03-01 21:23:00,53.1,42.4,29.88,SE,135,0.0,0.0,67,0.00,,---,0.00,VWS V14.01,2013-03-02 05:23:00,
2013-03-01 21:28:00,52.7,42.1,29.88,SE,135,0.0,0.0,67,0.00,,---,0.00,VWS V14.01,2013-03-02 05:28:00,
2013-03-01 21:33:00,52.5,42.3,29.88,SE,135,0.0,0.0,68,0.00,,---,0.00,VWS V14.01,2013-03-02 05:33:00,
2013-03-01 21:38:00,52.3,42.5,29.88,SE,135,0.0,0.0,69,0.00,,---,0.00,VWS V14.01,2013-03-02 05:38:00,
2013-03-01 21:43:00,52.0,42.1,29.88,SE,135,0.0,0.0,69,0.00,,---,0.00,VWS V14.01,2013-03-02 05:43:00,
2013-03-01 21:48:00,51.6,42.2,29.88,SE,135,0.0,0.0,70,0.00,,---,0.00,VWS V14.01,2013-03-02 05:48:00,
2013-03-01 21:53:00,51.1,42.0,29.88,SE,135,0.0,0.0,71,0.00,,---,0.00,VWS V14.01,2013-03-02 05:53:00,
2013-03-01 21:58:00,50.7,41.7,29.88,SE,135,0.0,0.0,71,0.00,,---,0.00,VWS V14.01,2013-03-02 05:58:00,
2013-03-01 22:03:00,50.5,41.5,29.88,SE,135,0.0,0.0,71,0.00,,---,0.00,VWS V14.01,2013-03-02 06:03:00,
2013-03-01 22:08:00,50.2,41.5,29.88,SE,135,0.0,0.0,72,0.00,,---,0.00,VWS V14.01,2013-03-02 06:08:00,
2013-03-01 22:13:00,50.0,41.3,29.88,SE,135,0.0,0.0,72,0.00,,---,0.00,VWS V14.01,2013-03-02 06:13:00,
2013-03-01 22:18:00,49.8,41.5,29.88,SE,135,0.0,0.0,73,0.00,,---,0.00,VWS V14.01,2013-03-02 06:18:00,
2013-03-01 22:23:00,49.5,41.2,29.88,SE,135,0.0,0.0,73,0.00,,---,0.00,VWS V14.01,2013-03-02 06:23:00,
2013-03-01 22:28:00,49.3,41.4,29.88,SE,135,0.0,0.0,74,0.00,,---,0.00,VWS V14.01,2013-03-02 06:28:00,
2013-03-01 22:33:00,49.1,41.2,29.88,SE,135,0.0,0.0,74,0.00,,---,0.00,VWS V14.01,2013-03-02 06:33:00,
2013-03-01 22:38:00,49.1,41.2,29.88,SE,135,0.0,0.0,74,0.00,,---,0.00,VWS V14.01,2013-03-02 06:38:00,
2013-03-01 22:43:00,48.9,41.0,29.88,SE,135,0.0,0.0,74,0.00,,---,0.00,VWS V14.01,2013-03-02 06:43:00,
2013-03-01 22:48:00,48.7,41.2,29.88,SE,135,0.0,0.0,75,0.00,,---,0.00,VWS V14.01,2013-03-02 06:48:00,
2013-03-01 22:53:00,48.7,41.2,29.88,SE,135,0.0,0.0,75,0.00,,---,0.00,VWS V14.01,2013-03-02 06:53:00,
2013-03-01 22:58:00,48.7,41.2,29.85,SE,135,0.0,0.0,75,0.00,,---,0.00,VWS V14.01,2013-03-02 06:58:00,
2013-03-01 23:03:00,48.4,40.8,29.85,SE,135,0.0,0.0,75,0.00,,---,0.00,VWS V14.01,2013-03-02 07:03:00,
2013-03-01 23:08:00,48.4,40.8,29.85,SE,135,0.0,0.0,75,0.00,,---,0.00,VWS V14.01,2013-03-02 07:08:00,
2013-03-01 23:13:00,48.2,41.0,29.85,SE,135,0.0,0.0,76,0.00,,---,0.00,VWS V14.01,2013-03-02 07:13:00,
2013-03-01 23:18:00,48.0,40.8,29.85,SE,135,0.0,0.0,76,0.00,,---,0.00,VWS V14.01,2013-03-02 07:18:00,
2013-03-01 23:23:00,47.8,41.0,29.85,SE,135,0.0,0.0,77,0.00,,---,0.00,VWS V14.01,2013-03-02 07:23:00,
2013-03-01 23:28:00,47.8,41.0,29.85,SE,135,0.0,0.0,77,0.00,,---,0.00,VWS V14.01,2013-03-02 07:28:00,
2013-03-01 23:33:00,47.7,40.8,29.85,SE,135,0.0,0.0,77,0.00,,---,0.00,VWS V14.01,2013-03-02 07:33:00,
2013-03-01 23:38:00,47.7,40.8,29.85,SE,135,0.0,0.0,77,0.00,,---,0.00,VWS V14.01,2013-03-02 07:38:00,
2013-03-01 23:43:00,47.5,41.0,29.85,SE,135,0.0,0.0,78,0.00,,---,0.00,VWS V14.01,2013-03-02 07:43:00,
2013-03-01 23:48:00,47.5,41.0,29.85,SE,135,0.0,0.0,78,0.00,,---,0.00,VWS V14.01,2013-03-02 07:48:00,
2013-03-01 23:53:00,47.5,41.0,29.85,SE,135,0.0,0.0,78,0.00,,---,0.00,VWS V14.01,2013-03-02 07:53:00,
2013-03-01 23:58:00,47.5,41.0,29.85,SE,135,0.0,0.0,78,0.00,,---,0.00,VWS V14.01,2013-03-02 07:58:00,